Terminal Aerodrome Forecast
Issued by NWS

Home | Current Version | Previous Version | Text Only | Print | Product List | Glossary On
Versions: 1 2 3 4 5 6 7 8 9 10 11 12 13 14 15 16 17 18 19 20 21 22 23 24 25 26 27 28 29 30 31 32 33
000
FTUS45 KGJT 230529
TAFMTJ
TAFMTJ
TAF
KMTJ 230529Z 2306/2406 14012KT P6SM VCSH SCT080 BKN100
      TEMPO 2306/2308 VRB12G22KT -TSRA BKN070CB
     FM230900 15008KT P6SM SCT070 BKN120
     FM231400 VRB03KT P6SM SCT120
     FM231900 30006KT P6SM VCSH BKN100
     FM232100 28008KT P6SM VCTS BKN070CB
     FM240300 16008KT P6SM VCSH BKN070=

USA.gov is the U.S. government's official web portal to all federal, state and local government web resources and services.